createdAt,value
2023-01-05T00:00:56.752Z,3.20
2023-01-05T00:03:24.171Z,3.45
2023-01-05T00:05:51.574Z,2.67
2023-01-05T00:08:18.938Z,3.30
2023-01-05T00:11:03.764Z,3.15
2023-01-05T00:13:48.635Z,3.58
2023-01-05T00:16:35.720Z,2.63
2023-01-05T00:19:20.546Z,2.92
2023-01-05T00:22:05.276Z,3.05
2023-01-05T00:24:32.660Z,3.30
2023-01-05T00:27:00.052Z,3.20
2023-01-05T00:29:27.485Z,3.60
2023-01-05T00:31:56.213Z,3.30
2023-01-05T00:34:23.639Z,2.95
2023-01-05T00:36:51.033Z,2.92
2023-01-05T00:39:18.393Z,3.72
2023-01-05T00:41:45.775Z,3.35
2023-01-05T00:44:13.147Z,3.00
2023-01-05T00:46:40.562Z,3.47
2023-01-05T00:49:09.411Z,3.72
2023-01-05T00:51:36.805Z,3.90
2023-01-05T00:54:04.264Z,3.97
2023-01-05T00:56:31.666Z,3.75
2023-01-05T00:58:59.052Z,2.97
2023-01-05T01:01:26.514Z,3.40
2023-01-05T01:03:53.991Z,3.65
2023-01-05T01:06:22.714Z,2.90
2023-01-05T01:08:50.447Z,3.25
2023-01-05T01:11:17.923Z,3.60
2023-01-05T01:13:45.399Z,2.53
2023-01-05T01:16:13.694Z,3.70
2023-01-05T01:18:41.437Z,3.20
2023-01-05T01:21:09.049Z,2.95
2023-01-05T01:23:38.069Z,3.78
2023-01-05T01:26:05.840Z,3.08
2023-01-05T01:28:33.240Z,3.53
2023-01-05T01:31:00.660Z,2.75
2023-01-05T01:33:28.185Z,3.45
2023-01-05T01:35:55.589Z,3.28
2023-01-05T01:38:23.006Z,3.17
2023-01-05T01:40:51.700Z,3.28
2023-01-05T01:43:21.131Z,2.97
2023-01-05T01:45:48.563Z,3.35
2023-01-05T01:48:17.273Z,3.05
2023-01-05T01:50:45.370Z,3.20
2023-01-05T01:53:15.053Z,2.83
2023-01-05T01:55:42.425Z,2.90
2023-01-05T01:58:13.532Z,2.95
2023-01-05T02:00:41.221Z,3.15
2023-01-05T02:03:08.614Z,3.00
2023-01-05T02:05:37.068Z,2.70
2023-01-05T02:08:05.001Z,3.53
2023-01-05T02:10:41.735Z,2.47
2023-01-05T02:13:19.289Z,2.80
2023-01-05T02:15:49.603Z,2.65
2023-01-05T02:18:33.846Z,3.20
2023-01-05T02:21:18.133Z,3.38
2023-01-05T02:23:54.546Z,3.10
2023-01-05T02:26:43.535Z,3.10
2023-01-05T02:29:23.280Z,2.70
2023-01-05T02:31:54.162Z,2.47
2023-01-05T02:34:22.658Z,2.80
2023-01-05T02:36:53.832Z,2.55
2023-01-05T02:39:23.499Z,3.05
2023-01-05T02:41:53.647Z,2.78
2023-01-05T02:46:48.500Z,2.88
2023-01-05T02:49:17.203Z,2.55
2023-01-05T02:51:47.956Z,3.10
2023-01-05T02:54:16.960Z,2.60
2023-01-05T02:56:46.137Z,2.72
2023-01-05T02:59:15.528Z,3.03
2023-01-05T03:01:44.086Z,2.45
2023-01-05T03:04:13.388Z,2.85
2023-01-05T03:06:46.870Z,2.87
2023-01-05T03:09:14.684Z,2.88
2023-01-05T03:12:02.619Z,3.10
2023-01-05T03:14:32.370Z,2.72
2023-01-05T03:16:59.753Z,2.72
2023-01-05T03:19:40.279Z,2.90
2023-01-05T03:22:32.751Z,3.13
2023-01-05T03:25:17.536Z,2.75
2023-01-05T03:28:02.391Z,3.25
2023-01-05T03:30:53.362Z,3.03
2023-01-05T03:33:43.813Z,3.20
2023-01-05T03:36:11.183Z,2.65
2023-01-05T03:38:42.348Z,3.20
2023-01-05T03:41:10.205Z,3.10
2023-01-05T03:43:37.735Z,2.75
2023-01-05T03:46:10.634Z,3.60
2023-01-05T03:48:38.063Z,3.20
2023-01-05T03:51:06.053Z,2.90
2023-01-05T03:53:33.420Z,3.50
2023-01-05T03:56:02.094Z,2.78
2023-01-05T03:58:29.479Z,2.78
2023-01-05T04:00:56.880Z,2.60
2023-01-05T04:03:31.073Z,2.70
2023-01-05T04:05:59.207Z,2.85
2023-01-05T04:08:26.595Z,2.60
2023-01-05T04:10:54.391Z,3.03
2023-01-05T04:13:23.099Z,2.88
2023-01-05T04:15:50.507Z,3.05
2023-01-05T04:18:17.930Z,3.17
2023-01-05T04:20:45.305Z,2.65
2023-01-05T04:23:12.704Z,2.80
2023-01-05T04:25:40.085Z,2.88
2023-01-05T04:28:07.469Z,2.80
2023-01-05T04:30:36.171Z,2.80
2023-01-05T04:33:03.548Z,2.83
2023-01-05T04:35:30.918Z,2.35
2023-01-05T04:37:58.279Z,3.38
2023-01-05T04:40:25.653Z,2.90
2023-01-05T04:42:53.035Z,2.55
2023-01-05T04:45:20.399Z,2.72
2023-01-05T04:47:49.094Z,3.30
2023-01-05T04:50:16.588Z,2.80
2023-01-05T04:52:43.987Z,2.88
2023-01-05T04:55:11.381Z,2.55
2023-01-05T04:57:38.819Z,3.08
2023-01-05T05:00:07.288Z,2.60
2023-01-05T05:02:34.951Z,2.85
2023-01-05T05:05:03.690Z,2.88
2023-01-05T05:07:31.110Z,2.88
2023-01-05T05:09:58.502Z,3.22
2023-01-05T05:12:25.913Z,3.05
2023-01-05T05:14:53.303Z,3.72
2023-01-05T05:17:20.719Z,2.97
2023-01-05T05:19:48.128Z,3.00
2023-01-05T05:22:16.842Z,2.80
2023-01-05T05:24:44.237Z,3.13
2023-01-05T05:27:11.617Z,2.80
2023-01-05T05:29:38.999Z,2.92
2023-01-05T05:32:06.444Z,2.75
2023-01-05T05:34:33.821Z,3.20
2023-01-05T05:37:01.293Z,2.55
2023-01-05T05:39:30.002Z,3.00
2023-01-05T05:41:57.366Z,3.22
2023-01-05T05:44:24.744Z,2.78
2023-01-05T05:46:52.134Z,2.80
2023-01-05T05:49:19.511Z,3.10
2023-01-05T05:51:46.883Z,2.50
2023-01-05T05:54:14.262Z,2.53
2023-01-05T05:56:42.940Z,2.33
2023-01-05T05:59:10.333Z,3.35
2023-01-05T06:01:37.816Z,3.03
2023-01-05T06:04:05.526Z,2.95
2023-01-05T06:06:32.900Z,2.83
2023-01-05T06:09:00.265Z,3.13
2023-01-05T06:11:27.631Z,2.65
2023-01-05T06:13:56.464Z,2.80
2023-01-05T06:16:23.900Z,2.75
2023-01-05T06:18:51.321Z,2.67
2023-01-05T06:21:19.607Z,2.55
2023-01-05T06:23:47.012Z,3.05
2023-01-05T06:26:14.390Z,2.40
2023-01-05T06:28:41.760Z,2.53
2023-01-05T06:31:10.469Z,2.50
2023-01-05T06:33:37.930Z,2.40
2023-01-05T06:36:05.551Z,3.15
2023-01-05T06:38:32.927Z,3.30
2023-01-05T06:41:00.311Z,3.47
2023-01-05T06:43:27.699Z,2.90
2023-01-05T06:45:55.102Z,3.15
2023-01-05T06:48:23.865Z,3.08
2023-01-05T06:50:51.238Z,2.85
2023-01-05T06:53:18.628Z,3.33
2023-01-05T06:55:46.008Z,2.90
2023-01-05T06:58:13.462Z,3.15
2023-01-05T07:00:40.916Z,2.92
2023-01-05T07:03:08.400Z,2.90
2023-01-05T07:05:37.090Z,3.30
2023-01-05T07:08:04.743Z,2.80
2023-01-05T07:10:32.143Z,2.88
2023-01-05T07:12:59.532Z,3.20
2023-01-05T07:15:26.908Z,3.28
2023-01-05T07:17:54.310Z,3.00
2023-01-05T07:20:21.708Z,3.03
2023-01-05T07:22:50.391Z,3.47
2023-01-05T07:25:18.240Z,3.42
2023-01-05T07:27:45.611Z,3.53
2023-01-05T07:30:13.877Z,3.53
2023-01-05T07:32:41.241Z,3.47
2023-01-05T07:35:09.413Z,3.90
2023-01-05T07:37:36.775Z,3.78
2023-01-05T07:40:06.828Z,3.22
2023-01-05T07:42:34.686Z,2.58
2023-01-05T07:45:02.391Z,4.00
2023-01-05T07:47:29.775Z,3.47
2023-01-05T07:49:57.161Z,4.05
2023-01-05T07:52:24.534Z,3.47
2023-01-05T07:54:51.935Z,4.00
2023-01-05T07:57:20.620Z,3.28
2023-01-05T07:59:48.017Z,3.40
2023-01-05T08:04:35.748Z,3.05
2023-01-05T08:07:03.198Z,3.78
2023-01-05T08:09:48.305Z,2.88
2023-01-05T08:12:15.680Z,3.15
2023-01-05T08:14:43.455Z,3.55
2023-01-05T08:17:10.839Z,3.88
2023-01-05T08:19:38.216Z,3.30
2023-01-05T08:22:05.592Z,2.92
2023-01-05T08:24:32.998Z,2.90
2023-01-05T08:27:00.425Z,3.05
2023-01-05T08:29:27.860Z,3.20
2023-01-05T08:31:56.606Z,3.72
2023-01-05T08:34:25.804Z,3.42
2023-01-05T08:36:55.034Z,3.05
2023-01-05T08:39:22.439Z,3.40
2023-01-05T08:41:49.814Z,3.00
2023-01-05T08:44:17.205Z,3.25
2023-01-05T08:46:44.601Z,2.97
2023-01-05T08:49:13.316Z,3.05
2023-01-05T08:51:40.720Z,3.13
2023-01-05T08:54:08.120Z,2.92
2023-01-05T08:56:39.089Z,3.20
2023-01-05T08:59:06.974Z,2.88
2023-01-05T09:01:34.461Z,3.40
2023-01-05T09:04:01.937Z,3.42
2023-01-05T09:06:30.633Z,3.10
2023-01-05T09:08:58.011Z,3.08
2023-01-05T09:11:26.168Z,3.28
2023-01-05T09:13:54.270Z,3.28
2023-01-05T09:19:10.199Z,3.10
2023-01-05T09:21:39.351Z,2.75
2023-01-05T09:24:07.355Z,2.70
2023-01-05T09:26:34.860Z,3.00
2023-01-05T09:29:02.301Z,3.38
2023-01-05T09:31:29.786Z,3.22
2023-01-05T09:33:57.478Z,3.45
2023-01-05T09:36:25.507Z,3.40
2023-01-05T09:38:55.616Z,2.70
2023-01-05T09:43:52.038Z,2.72
2023-01-05T09:46:21.966Z,2.90
2023-01-05T09:48:51.347Z,2.70
2023-01-05T09:51:18.747Z,2.53
2023-01-05T09:53:46.321Z,3.10
2023-01-05T09:56:42.302Z,2.40
2023-01-05T09:59:12.856Z,3.10
2023-01-05T10:01:40.298Z,3.08
2023-01-05T10:04:11.075Z,2.92
2023-01-05T10:06:41.081Z,3.28
2023-01-05T10:09:09.438Z,3.33
2023-01-05T10:11:58.024Z,3.35
2023-01-05T10:14:27.241Z,3.00
2023-01-05T10:17:22.408Z,2.77
2023-01-05T10:19:42.105Z,2.88
2023-01-05T10:22:17.023Z,3.10
2023-01-05T10:24:47.141Z,3.72
2023-01-05T10:29:55.753Z,3.10
2023-01-05T10:32:25.834Z,3.03
2023-01-05T10:37:31.547Z,3.60
2023-01-05T10:40:03.765Z,3.70
2023-01-05T10:42:40.686Z,3.50
2023-01-05T10:45:10.290Z,3.42
2023-01-05T10:47:38.285Z,3.58
2023-01-05T10:50:29.578Z,3.58
2023-01-05T10:52:57.265Z,3.60
2023-01-05T10:55:24.664Z,3.00
2023-01-05T10:57:52.035Z,3.22
2023-01-05T11:00:20.504Z,3.28
2023-01-05T11:02:50.045Z,3.40
2023-01-05T11:05:26.825Z,3.30
2023-01-05T11:07:56.299Z,3.40
2023-01-05T11:10:25.364Z,2.38
2023-01-05T11:12:54.123Z,3.00
2023-01-05T11:15:21.688Z,3.10
2023-01-05T11:17:49.112Z,3.22
2023-01-05T11:20:17.112Z,3.15
2023-01-05T11:22:44.701Z,3.47
2023-01-05T11:25:22.315Z,3.00
2023-01-05T11:28:07.957Z,3.58
2023-01-05T11:30:35.411Z,4.53
2023-01-05T11:33:03.198Z,3.30
2023-01-05T11:35:32.196Z,3.97
2023-01-05T11:38:00.245Z,3.90
2023-01-05T11:40:30.374Z,3.72
2023-01-05T11:45:25.687Z,3.63
2023-01-05T11:47:53.572Z,3.65
2023-01-05T11:50:24.695Z,3.95
2023-01-05T11:52:53.793Z,3.95
2023-01-05T11:55:41.144Z,3.33
2023-01-05T11:58:17.560Z,3.95
2023-01-05T12:00:54.866Z,3.92
2023-01-05T12:03:29.275Z,3.72
2023-01-05T12:05:57.617Z,3.40
2023-01-05T12:08:28.047Z,3.33
2023-01-05T12:11:03.517Z,3.10
2023-01-05T12:13:55.207Z,3.50
2023-01-05T12:16:28.892Z,3.40
2023-01-05T12:19:17.919Z,3.22
2023-01-05T12:21:46.793Z,3.10
2023-01-05T12:24:52.805Z,3.03
2023-01-05T12:27:28.152Z,3.53
2023-01-05T12:36:19.368Z,2.78
2023-01-05T12:38:49.474Z,3.10
2023-01-05T12:44:35.615Z,2.47
2023-01-05T12:47:10.996Z,2.75
2023-01-05T12:49:40.688Z,2.45
2023-01-05T12:52:10.444Z,2.38
2023-01-05T12:54:41.413Z,2.60
2023-01-05T12:57:10.186Z,2.85
2023-01-05T12:59:40.680Z,2.70
2023-01-05T13:02:20.974Z,2.95
2023-01-05T13:04:52.859Z,2.42
2023-01-05T13:07:26.256Z,2.30
2023-01-05T13:12:30.976Z,2.33
2023-01-05T13:15:06.238Z,2.45
2023-01-05T13:17:35.080Z,2.53
2023-01-05T13:20:04.830Z,2.47
2023-01-05T13:22:34.269Z,2.70
2023-01-05T13:25:04.949Z,2.28
2023-01-05T13:27:32.828Z,2.60
2023-01-05T13:30:01.811Z,2.22
2023-01-05T13:32:42.101Z,2.30
2023-01-05T13:35:30.640Z,2.60
2023-01-05T13:38:33.942Z,2.60
2023-01-05T13:41:08.431Z,2.20
2023-01-05T13:44:02.927Z,2.35
2023-01-05T13:46:40.906Z,2.22
2023-01-05T13:49:17.216Z,2.28
2023-01-05T13:51:54.990Z,2.33
2023-01-05T13:54:54.481Z,2.67
2023-01-05T13:57:28.662Z,2.17
2023-01-05T14:00:06.463Z,2.08
2023-01-05T14:02:38.761Z,2.30
2023-01-05T14:05:07.959Z,2.40
2023-01-05T14:07:35.627Z,2.10
2023-01-05T14:10:03.959Z,3.10
2023-01-05T14:12:47.599Z,2.47
2023-01-05T14:15:37.426Z,2.50
2023-01-05T14:18:06.403Z,2.30
2023-01-05T14:20:46.320Z,2.33
2023-01-05T14:23:51.216Z,2.28
2023-01-05T14:26:18.782Z,2.50
2023-01-05T14:28:49.287Z,1.98
2023-01-05T14:31:45.286Z,2.50
2023-01-05T14:34:18.213Z,2.17
2023-01-05T14:36:46.834Z,2.17
2023-01-05T14:39:26.874Z,2.10
2023-01-05T14:41:59.091Z,2.13
2023-01-05T14:44:28.655Z,2.35
2023-01-05T14:46:56.814Z,1.85
2023-01-05T14:49:27.954Z,2.13
2023-01-05T14:51:56.328Z,2.30
2023-01-05T14:55:00.646Z,2.10
2023-01-05T14:57:49.315Z,2.40
2023-01-05T15:00:17.549Z,2.08
2023-01-05T15:02:49.560Z,2.03
2023-01-05T15:05:18.274Z,2.03
2023-01-05T15:07:48.639Z,2.08
2023-01-05T15:10:43.629Z,1.80
2023-01-05T15:13:22.956Z,2.20
2023-01-05T15:15:50.918Z,2.20
2023-01-05T15:21:35.911Z,1.77
2023-01-05T15:24:19.401Z,1.88
2023-01-05T15:27:05.724Z,1.80
2023-01-05T15:29:46.398Z,1.83
2023-01-05T15:32:17.716Z,2.10
2023-01-05T15:37:14.656Z,2.45
2023-01-05T15:39:50.322Z,2.17
2023-01-05T15:42:19.850Z,2.30
2023-01-05T15:44:48.169Z,2.70
2023-01-05T15:47:15.823Z,2.28
2023-01-05T15:49:43.548Z,2.10
2023-01-05T15:52:19.435Z,2.78
2023-01-05T15:54:58.413Z,2.53
2023-01-05T15:57:25.870Z,2.22
2023-01-05T15:59:53.240Z,2.13
2023-01-05T16:02:23.185Z,2.10
2023-01-05T16:05:08.969Z,2.58
2023-01-05T16:07:36.358Z,2.47
2023-01-05T16:10:05.709Z,2.45
2023-01-05T16:12:33.081Z,2.50
2023-01-05T16:15:04.284Z,2.17
2023-01-05T16:17:32.794Z,2.55
2023-01-05T16:20:03.400Z,1.85
2023-01-05T16:22:32.185Z,2.28
2023-01-05T16:25:01.427Z,2.47
2023-01-05T16:27:30.159Z,2.50
2023-01-05T16:29:57.570Z,1.95
2023-01-05T16:32:32.457Z,2.53
2023-01-05T16:35:22.213Z,2.50
2023-01-05T16:38:05.316Z,2.50
2023-01-05T16:40:32.743Z,2.25
2023-01-05T16:43:01.511Z,2.40
2023-01-05T16:45:32.687Z,2.40
2023-01-05T16:48:00.143Z,2.33
2023-01-05T16:51:00.721Z,2.20
2023-01-05T16:53:28.152Z,2.72
2023-01-05T16:55:59.578Z,2.45
2023-01-05T16:58:36.503Z,2.80
2023-01-05T17:01:26.790Z,2.60
2023-01-05T17:03:54.264Z,2.50
2023-01-05T17:06:26.753Z,2.35
2023-01-05T17:08:54.437Z,3.22
2023-01-05T17:11:21.851Z,2.90
2023-01-05T17:13:52.193Z,3.40
2023-01-05T17:16:19.942Z,3.05
2023-01-05T17:18:47.538Z,3.40
2023-01-05T17:21:16.895Z,3.15
2023-01-05T17:23:46.969Z,3.25
2023-01-05T17:26:17.301Z,3.15
2023-01-05T17:33:41.622Z,2.92
2023-01-05T17:36:09.234Z,3.28
2023-01-05T17:38:36.639Z,3.45
2023-01-05T17:41:04.014Z,3.80
2023-01-05T17:43:31.396Z,3.38
2023-01-05T17:45:58.886Z,3.10
2023-01-05T17:48:27.613Z,3.75
2023-01-05T17:50:55.021Z,3.95
2023-01-05T17:53:22.408Z,3.92
2023-01-05T17:55:49.770Z,3.70
2023-01-05T17:58:17.164Z,3.35
2023-01-05T18:03:17.026Z,3.90
2023-01-05T18:08:13.116Z,3.42
2023-01-05T18:13:13.074Z,4.18
2023-01-05T18:15:42.052Z,3.95
2023-01-05T18:18:09.465Z,3.85
2023-01-05T18:20:36.990Z,3.97
2023-01-05T18:25:34.018Z,4.00
2023-01-05T18:28:01.480Z,4.13
2023-01-05T18:30:29.073Z,3.63
2023-01-05T18:32:57.230Z,3.97
2023-01-05T18:35:24.653Z,4.22
2023-01-05T18:37:52.055Z,4.22
2023-01-05T18:40:20.858Z,4.22
2023-01-05T18:42:48.263Z,4.40
2023-01-05T18:45:20.040Z,3.92
2023-01-05T18:47:56.564Z,4.10
2023-01-05T18:50:23.941Z,3.83
2023-01-05T18:52:51.336Z,4.00
2023-01-05T18:55:18.858Z,4.30
2023-01-05T18:57:47.567Z,4.10
2023-01-05T19:00:15.973Z,4.15
2023-01-05T19:02:43.368Z,4.50
2023-01-05T19:05:10.830Z,4.45
2023-01-05T19:07:39.642Z,4.72
2023-01-05T19:10:07.971Z,4.43
2023-01-05T19:12:35.365Z,4.63
2023-01-05T19:15:04.168Z,4.55
2023-01-05T19:17:33.477Z,4.70
2023-01-05T19:20:00.858Z,4.53
2023-01-05T19:22:28.272Z,5.10
2023-01-05T19:24:56.276Z,4.50
2023-01-05T19:27:23.646Z,4.60
2023-01-05T19:29:51.024Z,4.47
2023-01-05T19:32:19.733Z,4.32
2023-01-05T19:34:47.099Z,5.00
2023-01-05T19:37:14.482Z,4.38
2023-01-05T19:39:42.003Z,4.80
2023-01-05T19:42:09.391Z,4.65
2023-01-05T19:44:36.767Z,5.13
2023-01-05T19:47:04.151Z,5.28
2023-01-05T19:49:32.887Z,5.03
2023-01-05T19:52:00.277Z,5.43
2023-01-05T19:54:28.543Z,5.13
2023-01-05T19:56:56.314Z,5.32
2023-01-05T19:59:26.331Z,4.75
2023-01-05T20:01:56.067Z,5.30
2023-01-05T20:04:23.553Z,5.50
2023-01-05T20:06:52.240Z,5.03
2023-01-05T20:09:19.966Z,5.10
2023-01-05T20:11:48.789Z,5.07
2023-01-05T20:14:17.168Z,5.35
2023-01-05T20:16:45.951Z,5.13
2023-01-05T20:19:13.393Z,4.78
2023-01-05T20:21:40.769Z,4.80
2023-01-05T20:24:13.440Z,5.60
2023-01-05T20:26:41.841Z,4.95
2023-01-05T20:29:09.278Z,5.30
2023-01-05T20:31:37.632Z,5.57
2023-01-05T20:34:06.653Z,4.93
2023-01-05T20:36:34.101Z,5.10
2023-01-05T20:39:02.841Z,4.80
2023-01-05T20:41:32.506Z,5.25
2023-01-05T20:43:59.915Z,4.90
2023-01-05T20:46:29.618Z,4.45
2023-01-05T20:48:57.175Z,4.93
2023-01-05T20:51:24.658Z,4.35
2023-01-05T20:53:52.395Z,4.72
2023-01-05T20:56:21.822Z,4.57
2023-01-05T20:58:51.396Z,4.80
2023-01-05T21:01:18.896Z,5.30
2023-01-05T21:03:46.346Z,4.25
2023-01-05T21:06:14.739Z,4.15
2023-01-05T21:08:42.179Z,4.50
2023-01-05T21:11:15.851Z,4.40
2023-01-05T21:13:44.082Z,4.72
2023-01-05T21:16:15.774Z,3.95
2023-01-05T21:18:43.333Z,4.20
2023-01-05T21:21:10.792Z,4.45
2023-01-05T21:23:38.211Z,4.22
2023-01-05T21:26:10.268Z,4.70
2023-01-05T21:28:41.283Z,4.45
2023-01-05T21:31:10.098Z,4.22
2023-01-05T21:33:40.183Z,4.45
2023-01-05T21:39:01.079Z,4.63
2023-01-05T21:41:36.628Z,4.63
2023-01-05T21:44:04.757Z,3.88
2023-01-05T21:46:32.132Z,4.20
2023-01-05T21:49:00.822Z,4.40
2023-01-05T21:51:45.797Z,4.25
2023-01-05T21:54:31.146Z,3.75
2023-01-05T21:56:59.132Z,4.40
2023-01-05T21:59:26.613Z,3.80
2023-01-05T22:01:54.413Z,3.95
2023-01-05T22:04:23.109Z,4.10
2023-01-05T22:06:50.986Z,4.10
2023-01-05T22:09:18.412Z,4.20
2023-01-05T22:11:45.790Z,3.97
2023-01-05T22:14:13.193Z,4.10
2023-01-05T22:16:40.616Z,5.00
2023-01-05T22:19:08.064Z,4.13
2023-01-05T22:21:36.808Z,4.20
2023-01-05T22:24:04.340Z,3.78
2023-01-05T22:26:31.717Z,4.43
2023-01-05T22:28:59.080Z,3.92
2023-01-05T22:31:27.318Z,3.90
2023-01-05T22:33:55.510Z,4.30
2023-01-05T22:36:23.385Z,4.30
2023-01-05T22:38:52.681Z,4.60
2023-01-05T22:41:22.034Z,4.03
2023-01-05T22:43:49.622Z,4.32
2023-01-05T22:46:19.896Z,3.75
2023-01-05T22:48:48.039Z,4.10
2023-01-05T22:51:17.777Z,3.70
2023-01-05T22:53:45.428Z,4.38
2023-01-05T22:56:14.926Z,3.60
2023-01-05T22:58:42.920Z,4.35
2023-01-05T23:01:11.133Z,3.80
2023-01-05T23:03:38.764Z,3.63
2023-01-05T23:06:06.453Z,3.53
2023-01-05T23:08:39.727Z,3.92
2023-01-05T23:11:08.202Z,4.20
2023-01-05T23:13:36.896Z,3.80
2023-01-05T23:16:05.209Z,3.50
2023-01-05T23:18:32.867Z,3.65
2023-01-05T23:21:01.126Z,3.70
2023-01-05T23:25:57.712Z,3.65
2023-01-05T23:28:25.908Z,4.03
2023-01-05T23:30:55.346Z,4.03
2023-01-05T23:33:23.540Z,3.50
2023-01-05T23:35:51.242Z,3.83
2023-01-05T23:38:18.642Z,4.07
2023-01-05T23:40:46.973Z,3.85
2023-01-05T23:43:15.695Z,3.75
2023-01-05T23:45:43.317Z,3.80
2023-01-05T23:48:12.419Z,3.70
2023-01-05T23:50:41.909Z,3.92
2023-01-05T23:53:09.271Z,3.58
2023-01-05T23:55:36.661Z,4.32
2023-01-05T23:58:04.026Z,3.33
